sensor_id;sensor_type;location;lat;lon;timestamp;P1;durP1;ratioP1;P2;durP2;ratioP2
15281;SDS011;7742;44.320;19.820;2022-12-04T00:00:06;37.43;;;34.00;;
15281;SDS011;7742;44.320;19.820;2022-12-04T00:02:35;36.83;;;33.43;;
15281;SDS011;7742;44.320;19.820;2022-12-04T00:05:02;39.03;;;35.43;;
15281;SDS011;7742;44.320;19.820;2022-12-04T00:07:32;38.63;;;35.23;;
15281;SDS011;7742;44.320;19.820;2022-12-04T00:10:00;39.63;;;35.90;;
15281;SDS011;7742;44.320;19.820;2022-12-04T00:12:29;38.07;;;34.17;;
15281;SDS011;7742;44.320;19.820;2022-12-04T00:14:56;38.10;;;34.43;;
15281;SDS011;7742;44.320;19.820;2022-12-04T00:17:24;38.40;;;34.57;;
15281;SDS011;7742;44.320;19.820;2022-12-04T00:19:51;38.87;;;35.37;;
15281;SDS011;7742;44.320;19.820;2022-12-04T00:22:19;37.17;;;33.77;;
15281;SDS011;7742;44.320;19.820;2022-12-04T00:24:51;38.57;;;34.97;;
15281;SDS011;7742;44.320;19.820;2022-12-04T00:27:19;38.30;;;34.70;;
15281;SDS011;7742;44.320;19.820;2022-12-04T00:29:47;36.13;;;32.43;;
15281;SDS011;7742;44.320;19.820;2022-12-04T00:32:16;36.37;;;33.00;;
15281;SDS011;7742;44.320;19.820;2022-12-04T00:34:50;38.60;;;34.93;;
15281;SDS011;7742;44.320;19.820;2022-12-04T00:40:19;37.50;;;34.03;;
15281;SDS011;7742;44.320;19.820;2022-12-04T00:42:46;38.23;;;34.67;;
15281;SDS011;7742;44.320;19.820;2022-12-04T00:45:13;34.97;;;31.87;;
15281;SDS011;7742;44.320;19.820;2022-12-04T00:47:41;38.60;;;35.00;;
15281;SDS011;7742;44.320;19.820;2022-12-04T00:50:08;37.63;;;34.20;;
15281;SDS011;7742;44.320;19.820;2022-12-04T00:52:37;37.87;;;34.27;;
15281;SDS011;7742;44.320;19.820;2022-12-04T00:55:05;38.23;;;34.57;;
15281;SDS011;7742;44.320;19.820;2022-12-04T00:57:34;37.50;;;33.83;;
15281;SDS011;7742;44.320;19.820;2022-12-04T01:00:02;36.23;;;32.83;;
15281;SDS011;7742;44.320;19.820;2022-12-04T01:02:30;38.07;;;34.40;;
15281;SDS011;7742;44.320;19.820;2022-12-04T01:04:59;36.07;;;32.67;;
15281;SDS011;7742;44.320;19.820;2022-12-04T01:07:26;38.30;;;34.60;;
15281;SDS011;7742;44.320;19.820;2022-12-04T01:09:53;36.93;;;33.23;;
15281;SDS011;7742;44.320;19.820;2022-12-04T01:12:21;36.27;;;32.73;;
15281;SDS011;7742;44.320;19.820;2022-12-04T01:14:49;36.87;;;33.17;;
15281;SDS011;7742;44.320;19.820;2022-12-04T01:17:17;35.43;;;32.03;;
15281;SDS011;7742;44.320;19.820;2022-12-04T01:19:44;33.63;;;30.47;;
15281;SDS011;7742;44.320;19.820;2022-12-04T01:22:11;35.17;;;31.77;;
15281;SDS011;7742;44.320;19.820;2022-12-04T01:24:39;34.53;;;31.23;;
15281;SDS011;7742;44.320;19.820;2022-12-04T01:27:11;35.23;;;31.93;;
15281;SDS011;7742;44.320;19.820;2022-12-04T01:29:39;35.53;;;31.90;;
15281;SDS011;7742;44.320;19.820;2022-12-04T01:32:07;34.13;;;31.00;;
15281;SDS011;7742;44.320;19.820;2022-12-04T01:34:35;33.47;;;30.30;;
15281;SDS011;7742;44.320;19.820;2022-12-04T01:37:13;34.33;;;31.13;;
15281;SDS011;7742;44.320;19.820;2022-12-04T01:39:41;32.63;;;29.53;;
15281;SDS011;7742;44.320;19.820;2022-12-04T01:42:09;34.23;;;31.07;;
15281;SDS011;7742;44.320;19.820;2022-12-04T01:44:40;32.33;;;29.33;;
15281;SDS011;7742;44.320;19.820;2022-12-04T01:47:09;34.90;;;31.67;;
15281;SDS011;7742;44.320;19.820;2022-12-04T01:49:39;32.57;;;29.57;;
15281;SDS011;7742;44.320;19.820;2022-12-04T01:52:09;34.87;;;31.77;;
15281;SDS011;7742;44.320;19.820;2022-12-04T01:54:41;33.73;;;30.73;;
15281;SDS011;7742;44.320;19.820;2022-12-04T01:57:15;33.70;;;30.60;;
15281;SDS011;7742;44.320;19.820;2022-12-04T01:59:49;34.57;;;31.47;;
15281;SDS011;7742;44.320;19.820;2022-12-04T02:02:28;33.60;;;30.63;;
15281;SDS011;7742;44.320;19.820;2022-12-04T02:04:59;32.63;;;29.63;;
15281;SDS011;7742;44.320;19.820;2022-12-04T02:07:30;32.77;;;29.83;;
15281;SDS011;7742;44.320;19.820;2022-12-04T02:09:58;34.10;;;30.97;;
15281;SDS011;7742;44.320;19.820;2022-12-04T02:12:34;31.87;;;29.07;;
15281;SDS011;7742;44.320;19.820;2022-12-04T02:15:56;33.97;;;30.87;;
15281;SDS011;7742;44.320;19.820;2022-12-04T02:18:33;35.97;;;32.63;;
15281;SDS011;7742;44.320;19.820;2022-12-04T02:21:03;35.13;;;31.80;;
15281;SDS011;7742;44.320;19.820;2022-12-04T02:23:43;34.70;;;31.63;;
15281;SDS011;7742;44.320;19.820;2022-12-04T02:26:45;35.23;;;32.00;;
15281;SDS011;7742;44.320;19.820;2022-12-04T02:32:08;32.77;;;29.87;;
15281;SDS011;7742;44.320;19.820;2022-12-04T02:35:09;34.60;;;31.50;;
15281;SDS011;7742;44.320;19.820;2022-12-04T02:37:53;32.53;;;29.57;;
15281;SDS011;7742;44.320;19.820;2022-12-04T02:40:24;32.57;;;29.67;;
15281;SDS011;7742;44.320;19.820;2022-12-04T02:43:02;31.60;;;28.77;;
15281;SDS011;7742;44.320;19.820;2022-12-04T02:45:38;31.70;;;28.90;;
15281;SDS011;7742;44.320;19.820;2022-12-04T02:48:25;33.70;;;30.70;;
15281;SDS011;7742;44.320;19.820;2022-12-04T02:50:57;31.57;;;28.83;;
15281;SDS011;7742;44.320;19.820;2022-12-04T02:56:24;30.90;;;28.27;;
15281;SDS011;7742;44.320;19.820;2022-12-04T02:58:55;32.27;;;29.40;;
15281;SDS011;7742;44.320;19.820;2022-12-04T03:04:09;31.70;;;29.07;;
15281;SDS011;7742;44.320;19.820;2022-12-04T03:06:39;30.50;;;28.00;;
15281;SDS011;7742;44.320;19.820;2022-12-04T03:09:17;31.00;;;28.27;;
15281;SDS011;7742;44.320;19.820;2022-12-04T03:11:49;27.17;;;25.07;;
15281;SDS011;7742;44.320;19.820;2022-12-04T03:14:24;27.27;;;25.23;;
15281;SDS011;7742;44.320;19.820;2022-12-04T03:16:56;28.30;;;26.10;;
15281;SDS011;7742;44.320;19.820;2022-12-04T03:19:32;29.87;;;27.27;;
15281;SDS011;7742;44.320;19.820;2022-12-04T03:22:06;30.03;;;27.53;;
15281;SDS011;7742;44.320;19.820;2022-12-04T03:24:37;28.40;;;26.10;;
15281;SDS011;7742;44.320;19.820;2022-12-04T03:27:33;29.23;;;26.87;;
15281;SDS011;7742;44.320;19.820;2022-12-04T03:30:18;31.43;;;28.90;;
15281;SDS011;7742;44.320;19.820;2022-12-04T03:35:56;31.23;;;28.63;;
15281;SDS011;7742;44.320;19.820;2022-12-04T03:38:28;30.17;;;27.57;;
15281;SDS011;7742;44.320;19.820;2022-12-04T03:41:00;30.00;;;27.40;;
15281;SDS011;7742;44.320;19.820;2022-12-04T03:43:30;29.03;;;26.63;;
15281;SDS011;7742;44.320;19.820;2022-12-04T03:46:01;30.63;;;28.13;;
15281;SDS011;7742;44.320;19.820;2022-12-04T03:48:35;31.00;;;28.17;;
15281;SDS011;7742;44.320;19.820;2022-12-04T03:51:08;31.13;;;28.53;;
15281;SDS011;7742;44.320;19.820;2022-12-04T03:53:40;30.77;;;28.10;;
15281;SDS011;7742;44.320;19.820;2022-12-04T03:59:33;30.50;;;27.80;;
15281;SDS011;7742;44.320;19.820;2022-12-04T04:03:02;31.53;;;28.83;;
15281;SDS011;7742;44.320;19.820;2022-12-04T04:05:33;31.80;;;29.10;;
15281;SDS011;7742;44.320;19.820;2022-12-04T04:08:03;31.00;;;28.20;;
15281;SDS011;7742;44.320;19.820;2022-12-04T04:10:45;33.47;;;30.47;;
15281;SDS011;7742;44.320;19.820;2022-12-04T04:13:13;31.80;;;28.97;;
15281;SDS011;7742;44.320;19.820;2022-12-04T04:16:01;32.63;;;29.60;;
15281;SDS011;7742;44.320;19.820;2022-12-04T04:18:46;30.97;;;28.37;;
15281;SDS011;7742;44.320;19.820;2022-12-04T04:21:35;32.33;;;29.53;;
15281;SDS011;7742;44.320;19.820;2022-12-04T04:24:27;33.50;;;30.37;;
15281;SDS011;7742;44.320;19.820;2022-12-04T04:26:57;32.73;;;29.93;;
15281;SDS011;7742;44.320;19.820;2022-12-04T04:29:29;34.17;;;31.07;;
15281;SDS011;7742;44.320;19.820;2022-12-04T04:31:58;32.73;;;29.97;;
15281;SDS011;7742;44.320;19.820;2022-12-04T04:34:36;34.10;;;30.97;;
15281;SDS011;7742;44.320;19.820;2022-12-04T04:37:10;33.70;;;30.80;;
15281;SDS011;7742;44.320;19.820;2022-12-04T04:39:42;32.00;;;29.30;;
15281;SDS011;7742;44.320;19.820;2022-12-04T04:42:34;30.77;;;28.00;;
15281;SDS011;7742;44.320;19.820;2022-12-04T04:45:05;32.20;;;29.40;;
15281;SDS011;7742;44.320;19.820;2022-12-04T04:47:37;31.93;;;29.13;;
15281;SDS011;7742;44.320;19.820;2022-12-04T04:50:09;33.07;;;30.27;;
15281;SDS011;7742;44.320;19.820;2022-12-04T04:53:03;32.87;;;29.83;;
15281;SDS011;7742;44.320;19.820;2022-12-04T04:55:45;31.47;;;28.87;;
15281;SDS011;7742;44.320;19.820;2022-12-04T04:58:15;30.93;;;28.30;;
15281;SDS011;7742;44.320;19.820;2022-12-04T05:00:44;31.40;;;28.80;;
15281;SDS011;7742;44.320;19.820;2022-12-04T05:03:17;29.37;;;26.97;;
15281;SDS011;7742;44.320;19.820;2022-12-04T05:05:53;31.10;;;28.40;;
15281;SDS011;7742;44.320;19.820;2022-12-04T05:08:22;30.70;;;28.10;;
15281;SDS011;7742;44.320;19.820;2022-12-04T05:11:03;30.43;;;27.87;;
15281;SDS011;7742;44.320;19.820;2022-12-04T05:13:32;31.17;;;28.57;;
15281;SDS011;7742;44.320;19.820;2022-12-04T05:16:23;30.23;;;27.53;;
15281;SDS011;7742;44.320;19.820;2022-12-04T05:18:50;27.77;;;25.57;;
15281;SDS011;7742;44.320;19.820;2022-12-04T05:21:35;28.90;;;26.60;;
15281;SDS011;7742;44.320;19.820;2022-12-04T05:24:04;28.80;;;26.70;;
15281;SDS011;7742;44.320;19.820;2022-12-04T05:26:32;28.60;;;26.33;;
15281;SDS011;7742;44.320;19.820;2022-12-04T05:28:59;27.70;;;25.50;;
15281;SDS011;7742;44.320;19.820;2022-12-04T05:31:26;26.97;;;24.97;;
15281;SDS011;7742;44.320;19.820;2022-12-04T05:33:55;24.93;;;23.07;;
15281;SDS011;7742;44.320;19.820;2022-12-04T05:36:22;26.60;;;24.23;;
15281;SDS011;7742;44.320;19.820;2022-12-04T05:38:49;25.10;;;23.30;;
15281;SDS011;7742;44.320;19.820;2022-12-04T05:41:19;27.17;;;25.07;;
15281;SDS011;7742;44.320;19.820;2022-12-04T05:43:46;26.20;;;24.20;;
15281;SDS011;7742;44.320;19.820;2022-12-04T05:46:13;26.37;;;24.47;;
15281;SDS011;7742;44.320;19.820;2022-12-04T05:48:41;24.77;;;22.97;;
15281;SDS011;7742;44.320;19.820;2022-12-04T05:51:09;25.30;;;23.40;;
15281;SDS011;7742;44.320;19.820;2022-12-04T05:53:36;24.77;;;22.97;;
15281;SDS011;7742;44.320;19.820;2022-12-04T05:56:04;25.57;;;23.67;;
15281;SDS011;7742;44.320;19.820;2022-12-04T05:58:34;25.83;;;23.80;;
15281;SDS011;7742;44.320;19.820;2022-12-04T06:01:06;24.73;;;22.83;;
15281;SDS011;7742;44.320;19.820;2022-12-04T06:03:35;25.60;;;23.50;;
15281;SDS011;7742;44.320;19.820;2022-12-04T06:06:02;26.30;;;24.30;;
15281;SDS011;7742;44.320;19.820;2022-12-04T06:08:30;27.07;;;25.10;;
15281;SDS011;7742;44.320;19.820;2022-12-04T06:10:57;26.60;;;24.47;;
15281;SDS011;7742;44.320;19.820;2022-12-04T06:13:24;25.60;;;23.70;;
15281;SDS011;7742;44.320;19.820;2022-12-04T06:15:53;25.13;;;23.33;;
15281;SDS011;7742;44.320;19.820;2022-12-04T06:18:22;23.93;;;22.13;;
15281;SDS011;7742;44.320;19.820;2022-12-04T06:20:49;26.60;;;24.23;;
15281;SDS011;7742;44.320;19.820;2022-12-04T06:23:16;25.60;;;23.60;;
15281;SDS011;7742;44.320;19.820;2022-12-04T06:25:43;25.17;;;23.23;;
15281;SDS011;7742;44.320;19.820;2022-12-04T06:28:11;24.87;;;23.07;;
15281;SDS011;7742;44.320;19.820;2022-12-04T06:30:38;24.83;;;22.97;;
15281;SDS011;7742;44.320;19.820;2022-12-04T06:33:07;24.27;;;22.47;;
15281;SDS011;7742;44.320;19.820;2022-12-04T06:35:34;23.73;;;21.93;;
15281;SDS011;7742;44.320;19.820;2022-12-04T06:38:02;26.53;;;24.47;;
15281;SDS011;7742;44.320;19.820;2022-12-04T06:40:29;24.13;;;22.43;;
15281;SDS011;7742;44.320;19.820;2022-12-04T06:42:57;25.87;;;23.97;;
15281;SDS011;7742;44.320;19.820;2022-12-04T06:45:24;25.13;;;23.03;;
15281;SDS011;7742;44.320;19.820;2022-12-04T06:47:51;24.97;;;23.10;;
15281;SDS011;7742;44.320;19.820;2022-12-04T06:50:20;25.10;;;23.10;;
15281;SDS011;7742;44.320;19.820;2022-12-04T06:52:47;25.80;;;23.73;;
15281;SDS011;7742;44.320;19.820;2022-12-04T06:55:15;25.80;;;23.90;;
15281;SDS011;7742;44.320;19.820;2022-12-04T06:57:44;27.20;;;25.10;;
15281;SDS011;7742;44.320;19.820;2022-12-04T07:00:11;26.27;;;24.30;;
15281;SDS011;7742;44.320;19.820;2022-12-04T07:02:39;25.37;;;23.53;;
15281;SDS011;7742;44.320;19.820;2022-12-04T07:05:07;26.50;;;24.60;;
15281;SDS011;7742;44.320;19.820;2022-12-04T07:07:36;25.73;;;23.90;;
15281;SDS011;7742;44.320;19.820;2022-12-04T07:10:04;27.57;;;25.37;;
15281;SDS011;7742;44.320;19.820;2022-12-04T07:12:32;27.30;;;25.20;;
15281;SDS011;7742;44.320;19.820;2022-12-04T07:14:59;27.20;;;25.13;;
15281;SDS011;7742;44.320;19.820;2022-12-04T07:17:27;27.07;;;25.00;;
15281;SDS011;7742;44.320;19.820;2022-12-04T07:19:54;28.63;;;26.30;;
15281;SDS011;7742;44.320;19.820;2022-12-04T07:22:21;28.53;;;26.23;;
15281;SDS011;7742;44.320;19.820;2022-12-04T07:24:50;27.33;;;25.23;;
15281;SDS011;7742;44.320;19.820;2022-12-04T07:27:17;26.17;;;24.17;;
15281;SDS011;7742;44.320;19.820;2022-12-04T07:29:45;27.30;;;25.10;;
15281;SDS011;7742;44.320;19.820;2022-12-04T07:32:12;26.43;;;24.53;;
15281;SDS011;7742;44.320;19.820;2022-12-04T07:34:39;27.53;;;25.53;;
15281;SDS011;7742;44.320;19.820;2022-12-04T07:37:07;25.53;;;23.53;;
15281;SDS011;7742;44.320;19.820;2022-12-04T07:39:34;27.13;;;25.10;;
15281;SDS011;7742;44.320;19.820;2022-12-04T07:42:03;26.47;;;24.47;;
15281;SDS011;7742;44.320;19.820;2022-12-04T07:44:30;24.83;;;23.03;;
15281;SDS011;7742;44.320;19.820;2022-12-04T07:46:58;24.67;;;22.67;;
15281;SDS011;7742;44.320;19.820;2022-12-04T07:49:25;26.53;;;24.40;;
15281;SDS011;7742;44.320;19.820;2022-12-04T07:51:52;26.63;;;24.60;;
15281;SDS011;7742;44.320;19.820;2022-12-04T07:54:20;25.27;;;23.20;;
15281;SDS011;7742;44.320;19.820;2022-12-04T07:56:47;25.33;;;23.40;;
15281;SDS011;7742;44.320;19.820;2022-12-04T07:59:16;25.03;;;23.17;;
15281;SDS011;7742;44.320;19.820;2022-12-04T08:01:43;24.97;;;22.97;;
15281;SDS011;7742;44.320;19.820;2022-12-04T08:04:11;23.07;;;21.17;;
15281;SDS011;7742;44.320;19.820;2022-12-04T08:06:38;24.70;;;22.80;;
15281;SDS011;7742;44.320;19.820;2022-12-04T08:09:06;24.67;;;22.77;;
15281;SDS011;7742;44.320;19.820;2022-12-04T08:11:33;23.80;;;21.90;;
15281;SDS011;7742;44.320;19.820;2022-12-04T08:14:01;24.23;;;22.43;;
15281;SDS011;7742;44.320;19.820;2022-12-04T08:16:34;25.03;;;23.23;;
15281;SDS011;7742;44.320;19.820;2022-12-04T08:19:01;24.70;;;22.90;;
15281;SDS011;7742;44.320;19.820;2022-12-04T08:21:30;25.20;;;23.40;;
15281;SDS011;7742;44.320;19.820;2022-12-04T08:23:59;25.37;;;23.30;;
15281;SDS011;7742;44.320;19.820;2022-12-04T08:26:28;24.83;;;22.93;;
15281;SDS011;7742;44.320;19.820;2022-12-04T08:28:56;25.30;;;23.53;;
15281;SDS011;7742;44.320;19.820;2022-12-04T08:31:26;24.60;;;22.73;;
15281;SDS011;7742;44.320;19.820;2022-12-04T08:33:56;24.13;;;22.23;;
15281;SDS011;7742;44.320;19.820;2022-12-04T08:36:24;24.87;;;22.97;;
15281;SDS011;7742;44.320;19.820;2022-12-04T08:38:51;25.97;;;23.97;;
15281;SDS011;7742;44.320;19.820;2022-12-04T08:41:20;24.30;;;22.53;;
15281;SDS011;7742;44.320;19.820;2022-12-04T08:43:48;24.27;;;22.37;;
15281;SDS011;7742;44.320;19.820;2022-12-04T08:46:16;25.40;;;23.50;;
15281;SDS011;7742;44.320;19.820;2022-12-04T08:48:44;22.97;;;21.37;;
15281;SDS011;7742;44.320;19.820;2022-12-04T08:51:13;23.00;;;21.23;;
15281;SDS011;7742;44.320;19.820;2022-12-04T08:53:42;24.70;;;22.97;;
15281;SDS011;7742;44.320;19.820;2022-12-04T08:56:09;24.47;;;22.63;;
15281;SDS011;7742;44.320;19.820;2022-12-04T08:58:37;24.37;;;22.57;;
15281;SDS011;7742;44.320;19.820;2022-12-04T09:01:05;24.23;;;22.50;;
15281;SDS011;7742;44.320;19.820;2022-12-04T09:03:33;23.83;;;22.23;;
15281;SDS011;7742;44.320;19.820;2022-12-04T09:06:00;23.80;;;22.07;;
15281;SDS011;7742;44.320;19.820;2022-12-04T09:08:30;24.30;;;22.53;;
15281;SDS011;7742;44.320;19.820;2022-12-04T09:11:01;22.90;;;21.30;;
15281;SDS011;7742;44.320;19.820;2022-12-04T09:13:29;23.77;;;22.17;;
15281;SDS011;7742;44.320;19.820;2022-12-04T09:15:57;23.50;;;21.80;;
15281;SDS011;7742;44.320;19.820;2022-12-04T09:18:24;22.57;;;20.87;;
15281;SDS011;7742;44.320;19.820;2022-12-04T09:20:55;23.47;;;21.87;;
15281;SDS011;7742;44.320;19.820;2022-12-04T09:23:23;22.00;;;20.50;;
15281;SDS011;7742;44.320;19.820;2022-12-04T09:25:52;21.97;;;20.37;;
15281;SDS011;7742;44.320;19.820;2022-12-04T09:28:20;22.00;;;20.40;;
15281;SDS011;7742;44.320;19.820;2022-12-04T09:30:54;21.73;;;20.23;;
15281;SDS011;7742;44.320;19.820;2022-12-04T09:33:23;21.70;;;20.10;;
15281;SDS011;7742;44.320;19.820;2022-12-04T09:35:50;22.13;;;20.50;;
15281;SDS011;7742;44.320;19.820;2022-12-04T09:38:18;21.80;;;20.37;;
15281;SDS011;7742;44.320;19.820;2022-12-04T09:40:47;20.33;;;19.03;;
15281;SDS011;7742;44.320;19.820;2022-12-04T09:43:22;20.63;;;19.27;;
15281;SDS011;7742;44.320;19.820;2022-12-04T09:45:53;20.67;;;19.27;;
15281;SDS011;7742;44.320;19.820;2022-12-04T09:48:24;20.53;;;19.13;;
15281;SDS011;7742;44.320;19.820;2022-12-04T09:50:56;20.17;;;18.77;;
15281;SDS011;7742;44.320;19.820;2022-12-04T09:53:25;21.83;;;20.33;;
15281;SDS011;7742;44.320;19.820;2022-12-04T09:55:55;21.00;;;19.63;;
15281;SDS011;7742;44.320;19.820;2022-12-04T09:58:27;22.20;;;20.50;;
15281;SDS011;7742;44.320;19.820;2022-12-04T10:01:00;22.40;;;20.90;;
15281;SDS011;7742;44.320;19.820;2022-12-04T10:03:29;21.77;;;20.27;;
15281;SDS011;7742;44.320;19.820;2022-12-04T10:05:57;21.97;;;20.47;;
15281;SDS011;7742;44.320;19.820;2022-12-04T10:08:29;22.67;;;21.07;;
15281;SDS011;7742;44.320;19.820;2022-12-04T10:11:02;21.90;;;20.30;;
15281;SDS011;7742;44.320;19.820;2022-12-04T10:16:26;22.17;;;20.57;;
15281;SDS011;7742;44.320;19.820;2022-12-04T10:18:59;22.30;;;20.67;;
15281;SDS011;7742;44.320;19.820;2022-12-04T10:21:35;22.03;;;20.47;;
15281;SDS011;7742;44.320;19.820;2022-12-04T10:26:54;21.20;;;19.70;;
15281;SDS011;7742;44.320;19.820;2022-12-04T10:29:24;23.27;;;21.47;;
15281;SDS011;7742;44.320;19.820;2022-12-04T10:32:02;22.37;;;20.77;;
15281;SDS011;7742;44.320;19.820;2022-12-04T10:34:39;21.80;;;20.23;;
15281;SDS011;7742;44.320;19.820;2022-12-04T10:37:08;23.07;;;21.37;;
15281;SDS011;7742;44.320;19.820;2022-12-04T10:39:39;23.50;;;21.70;;
15281;SDS011;7742;44.320;19.820;2022-12-04T10:42:10;23.43;;;21.73;;
15281;SDS011;7742;44.320;19.820;2022-12-04T10:44:43;24.47;;;22.67;;
15281;SDS011;7742;44.320;19.820;2022-12-04T10:47:11;22.87;;;21.20;;
15281;SDS011;7742;44.320;19.820;2022-12-04T10:49:39;24.23;;;22.43;;
15281;SDS011;7742;44.320;19.820;2022-12-04T10:52:08;23.67;;;22.00;;
15281;SDS011;7742;44.320;19.820;2022-12-04T10:54:37;24.03;;;22.23;;
15281;SDS011;7742;44.320;19.820;2022-12-04T10:57:09;24.97;;;23.07;;
15281;SDS011;7742;44.320;19.820;2022-12-04T10:59:38;24.07;;;22.37;;
15281;SDS011;7742;44.320;19.820;2022-12-04T11:02:11;23.67;;;21.73;;
15281;SDS011;7742;44.320;19.820;2022-12-04T11:04:42;25.10;;;23.20;;
15281;SDS011;7742;44.320;19.820;2022-12-04T11:07:15;25.27;;;23.27;;
15281;SDS011;7742;44.320;19.820;2022-12-04T11:09:52;24.60;;;22.80;;
15281;SDS011;7742;44.320;19.820;2022-12-04T11:12:20;23.17;;;21.50;;
15281;SDS011;7742;44.320;19.820;2022-12-04T11:14:58;24.00;;;22.20;;
15281;SDS011;7742;44.320;19.820;2022-12-04T11:17:27;21.50;;;19.90;;
15281;SDS011;7742;44.320;19.820;2022-12-04T11:19:58;22.43;;;20.73;;
15281;SDS011;7742;44.320;19.820;2022-12-04T11:22:26;22.50;;;20.90;;
15281;SDS011;7742;44.320;19.820;2022-12-04T11:24:54;22.43;;;20.73;;
15281;SDS011;7742;44.320;19.820;2022-12-04T11:27:24;24.23;;;22.40;;
15281;SDS011;7742;44.320;19.820;2022-12-04T11:29:55;24.00;;;22.10;;
15281;SDS011;7742;44.320;19.820;2022-12-04T11:32:24;22.40;;;20.80;;
15281;SDS011;7742;44.320;19.820;2022-12-04T11:34:56;21.43;;;19.93;;
15281;SDS011;7742;44.320;19.820;2022-12-04T11:37:27;22.80;;;21.20;;
15281;SDS011;7742;44.320;19.820;2022-12-04T11:40:00;22.53;;;20.93;;
15281;SDS011;7742;44.320;19.820;2022-12-04T11:42:32;22.63;;;21.00;;
15281;SDS011;7742;44.320;19.820;2022-12-04T11:45:00;22.00;;;20.50;;
15281;SDS011;7742;44.320;19.820;2022-12-04T11:47:37;21.30;;;19.80;;
15281;SDS011;7742;44.320;19.820;2022-12-04T11:50:19;22.63;;;21.13;;
15281;SDS011;7742;44.320;19.820;2022-12-04T11:52:57;21.50;;;20.03;;
15281;SDS011;7742;44.320;19.820;2022-12-04T11:55:33;21.73;;;20.23;;
15281;SDS011;7742;44.320;19.820;2022-12-04T11:58:11;22.57;;;21.07;;
15281;SDS011;7742;44.320;19.820;2022-12-04T12:01:04;22.20;;;20.63;;
15281;SDS011;7742;44.320;19.820;2022-12-04T12:03:39;22.47;;;20.97;;
15281;SDS011;7742;44.320;19.820;2022-12-04T12:06:12;23.33;;;21.63;;
15281;SDS011;7742;44.320;19.820;2022-12-04T12:08:49;23.37;;;21.70;;
15281;SDS011;7742;44.320;19.820;2022-12-04T12:11:27;23.67;;;21.97;;
15281;SDS011;7742;44.320;19.820;2022-12-04T12:14:00;24.80;;;23.00;;
15281;SDS011;7742;44.320;19.820;2022-12-04T12:16:45;25.00;;;23.13;;
15281;SDS011;7742;44.320;19.820;2022-12-04T12:19:25;24.10;;;22.40;;
15281;SDS011;7742;44.320;19.820;2022-12-04T12:52:11;23.83;;;22.03;;
15281;SDS011;7742;44.320;19.820;2022-12-04T12:55:30;20.93;;;19.53;;
15281;SDS011;7742;44.320;19.820;2022-12-04T13:00:12;20.97;;;19.67;;
15281;SDS011;7742;44.320;19.820;2022-12-04T13:02:24;21.13;;;19.73;;
15281;SDS011;7742;44.320;19.820;2022-12-04T13:05:12;21.30;;;19.80;;
15281;SDS011;7742;44.320;19.820;2022-12-04T13:12:04;22.00;;;20.50;;
15281;SDS011;7742;44.320;19.820;2022-12-04T14:05:41;22.63;;;21.03;;
15281;SDS011;7742;44.320;19.820;2022-12-04T14:08:33;21.60;;;20.13;;
15281;SDS011;7742;44.320;19.820;2022-12-04T14:11:19;21.23;;;19.83;;
15281;SDS011;7742;44.320;19.820;2022-12-04T14:17:28;22.23;;;20.63;;
15281;SDS011;7742;44.320;19.820;2022-12-04T14:20:26;21.67;;;20.17;;
15281;SDS011;7742;44.320;19.820;2022-12-04T14:23:32;20.70;;;19.30;;
15281;SDS011;7742;44.320;19.820;2022-12-04T14:26:17;23.10;;;21.50;;
15281;SDS011;7742;44.320;19.820;2022-12-04T14:29:04;23.40;;;21.50;;
15281;SDS011;7742;44.320;19.820;2022-12-04T14:31:48;22.17;;;20.47;;
15281;SDS011;7742;44.320;19.820;2022-12-04T14:34:47;21.13;;;19.70;;
15281;SDS011;7742;44.320;19.820;2022-12-04T14:40:26;21.40;;;19.93;;
15281;SDS011;7742;44.320;19.820;2022-12-04T14:43:12;21.10;;;19.70;;
15281;SDS011;7742;44.320;19.820;2022-12-04T14:46:17;21.60;;;20.00;;
15281;SDS011;7742;44.320;19.820;2022-12-04T14:48:51;21.33;;;19.83;;
15281;SDS011;7742;44.320;19.820;2022-12-04T14:51:30;21.33;;;19.93;;
15281;SDS011;7742;44.320;19.820;2022-12-04T15:03:15;22.10;;;20.43;;
15281;SDS011;7742;44.320;19.820;2022-12-04T15:04:31;20.60;;;19.10;;
15281;SDS011;7742;44.320;19.820;2022-12-04T15:10:40;20.20;;;18.90;;
15281;SDS011;7742;44.320;19.820;2022-12-04T15:14:02;20.23;;;18.93;;
15281;SDS011;7742;44.320;19.820;2022-12-04T15:16:30;21.27;;;19.77;;
15281;SDS011;7742;44.320;19.820;2022-12-04T15:18:58;20.63;;;19.23;;
15281;SDS011;7742;44.320;19.820;2022-12-04T15:21:33;19.77;;;18.33;;
15281;SDS011;7742;44.320;19.820;2022-12-04T15:24:06;21.23;;;19.73;;
15281;SDS011;7742;44.320;19.820;2022-12-04T15:26:33;20.73;;;19.20;;
15281;SDS011;7742;44.320;19.820;2022-12-04T15:29:03;21.20;;;19.80;;
15281;SDS011;7742;44.320;19.820;2022-12-04T15:31:32;20.23;;;18.90;;
15281;SDS011;7742;44.320;19.820;2022-12-04T15:34:02;21.30;;;19.80;;
15281;SDS011;7742;44.320;19.820;2022-12-04T15:36:35;21.33;;;19.90;;
15281;SDS011;7742;44.320;19.820;2022-12-04T15:39:07;20.67;;;19.27;;
15281;SDS011;7742;44.320;19.820;2022-12-04T15:41:38;20.43;;;19.03;;
15281;SDS011;7742;44.320;19.820;2022-12-04T15:46:50;21.07;;;19.70;;
15281;SDS011;7742;44.320;19.820;2022-12-04T15:49:23;20.13;;;18.80;;
15281;SDS011;7742;44.320;19.820;2022-12-04T15:52:01;20.37;;;19.07;;
15281;SDS011;7742;44.320;19.820;2022-12-04T15:54:30;20.27;;;18.93;;
15281;SDS011;7742;44.320;19.820;2022-12-04T15:56:59;22.37;;;20.77;;
15281;SDS011;7742;44.320;19.820;2022-12-04T15:59:28;20.90;;;19.40;;
15281;SDS011;7742;44.320;19.820;2022-12-04T16:01:57;20.97;;;19.60;;
15281;SDS011;7742;44.320;19.820;2022-12-04T16:04:31;21.23;;;19.67;;
15281;SDS011;7742;44.320;19.820;2022-12-04T16:07:00;20.47;;;19.17;;
15281;SDS011;7742;44.320;19.820;2022-12-04T16:09:27;19.17;;;17.97;;
15281;SDS011;7742;44.320;19.820;2022-12-04T16:11:56;20.40;;;19.10;;
15281;SDS011;7742;44.320;19.820;2022-12-04T16:14:24;21.20;;;19.70;;
15281;SDS011;7742;44.320;19.820;2022-12-04T16:16:54;21.20;;;19.67;;
15281;SDS011;7742;44.320;19.820;2022-12-04T16:19:27;19.77;;;18.37;;
15281;SDS011;7742;44.320;19.820;2022-12-04T16:21:56;20.23;;;19.00;;
15281;SDS011;7742;44.320;19.820;2022-12-04T16:24:23;20.60;;;19.20;;
15281;SDS011;7742;44.320;19.820;2022-12-04T16:26:51;18.90;;;17.70;;
15281;SDS011;7742;44.320;19.820;2022-12-04T16:29:20;21.13;;;19.83;;
15281;SDS011;7742;44.320;19.820;2022-12-04T16:31:47;20.33;;;19.07;;
15281;SDS011;7742;44.320;19.820;2022-12-04T16:34:17;20.23;;;18.93;;
15281;SDS011;7742;44.320;19.820;2022-12-04T16:36:44;20.07;;;18.77;;
15281;SDS011;7742;44.320;19.820;2022-12-04T16:39:12;20.90;;;19.50;;
15281;SDS011;7742;44.320;19.820;2022-12-04T16:41:39;20.97;;;19.43;;
15281;SDS011;7742;44.320;19.820;2022-12-04T16:44:08;22.23;;;20.73;;
15281;SDS011;7742;44.320;19.820;2022-12-04T16:46:39;20.70;;;19.30;;
15281;SDS011;7742;44.320;19.820;2022-12-04T16:49:07;20.20;;;18.90;;
15281;SDS011;7742;44.320;19.820;2022-12-04T16:51:36;21.90;;;20.40;;
15281;SDS011;7742;44.320;19.820;2022-12-04T16:54:04;21.47;;;19.97;;
15281;SDS011;7742;44.320;19.820;2022-12-04T16:56:31;22.03;;;20.43;;
15281;SDS011;7742;44.320;19.820;2022-12-04T16:59:13;22.00;;;20.40;;
15281;SDS011;7742;44.320;19.820;2022-12-04T17:01:41;22.80;;;21.20;;